CYDP/YDP METAR and TAF weather

Enter ICAO airport designator
Station Type Date Time Source
CYDP METAR 2018/07/21 11:00 UTC NOAA

CYDP 211100Z 30016KT 15SM FEW280 13/06 A3011 RMK CI1 TR CI SLP199


Station Type Date Time Source
CYDP Decoded METAR 2018/07/21 11:00 UTC NOAA

Nain, Nfld, Canada (CYDP) 56-33N 061-41W 7M
Jul 21, 2018 - 07:00 AM EDT / 2018.07.21 1100 UTC
Wind: from the WNW (300 degrees) at 18 MPH (16 KT):0
Visibility: 15 mile(s):0
Sky conditions: mostly clear
Temperature: 55 F (13 C)
Dew Point: 42 F (6 C)
Relative Humidity: 62%
Pressure (altimeter): 30.11 in. Hg (1019 hPa)
ob: CYDP 211100Z 30016KT 15SM FEW280 13/06 A3011 RMK CI1 TR CI SLP199
cycle: 11

Station Type Date Time Source
CYDP TAF 2018/07/21 10:39 UTC NOAA

TAF TAF CYDP 210938Z 2110/2122 29015KT P6SM SKC
BECMG 2110/2112 30012G22KT
RMK NXT FCST BY 211400Z


Example: see airport list